Flight Track Log - Related Links

Times and Time Zones

All times are in EDT time to prevent confusion due to time zone crossing. See the N432BG flight status page for this flight to view local times or setup timezone preferences in your user account.

Time Position Orientation Groundspeed Altitude Reporting Facility
EDT Latitude Longitude Course Direction KTS MPH feet Rate Location/Type
Fri 07:08:05 AM 63.8000 -68.5333 59° Northeast 110 127 1,200  Level Montreal Center
Fri 07:09:05 AM 63.7833 -68.4500 114° Southeast 130 150 2,500 1,250 Climbing Montreal Center
Fri 07:10:05 AM 63.7667 -68.3833 119° Southeast 130 150 3,700 1,150 Climbing Montreal Center
Fri 07:11:05 AM 63.8000 -68.3000 48° Northeast 140 161 4,800 1,050 Climbing Montreal Center
Fri 07:12:05 AM 63.8167 -68.2167 66° East 140 161 5,800 950 Climbing Montreal Center
Fri 07:13:00 AM 63.8620 -68.0009 59° Northeast  Level FlightAware Approximate
Fri 07:13:05 AM 63.8500 -68.1667 33° Northeast 150 173 6,700  Level Montreal Center
Fri 07:14:05 AM 63.8667 -68.1000 60° Northeast 150 173 7,700 950 Climbing Montreal Center
Fri 07:15:05 AM 63.8833 -68.0000 69° East 140 161 8,600 900 Climbing Montreal Center
Fri 07:16:05 AM 63.9000 -67.9333 60° Northeast 140 161 9,500 850 Climbing Montreal Center
Fri 07:17:05 AM 63.9167 -67.8500 66° East 140 161 10,300 850 Climbing Montreal Center
Fri 07:18:05 AM 63.9500 -67.8000 33° Northeast 130 150 11,200 800 Climbing Montreal Center
Fri 07:19:05 AM 63.9667 -67.7167 65° Northeast 130 150 11,900 550 Climbing Montreal Center
Fri 07:20:05 AM 63.9667 -67.6333 90° East 140 161 12,300 400 Climbing Montreal Center
Fri 07:21:05 AM 64.0000 -67.5500 48° Northeast 140 161 12,700 450 Climbing Montreal Center
Fri 07:22:05 AM 64.0333 -67.4667 48° Northeast 150 173 13,200 500 Climbing Montreal Center
Fri 07:23:05 AM 64.0333 -67.3833 90° East 160 184 13,700 500 Climbing Montreal Center
Fri 07:24:05 AM 64.0667 -67.3000 48° Northeast 150 173 14,200 500 Climbing Montreal Center
Fri 07:25:05 AM 64.0833 -67.2167 65° Northeast 150 173 14,700 500 Climbing Montreal Center
Fri 07:26:05 AM 64.1167 -67.1333 47° Northeast 140 161 15,200 450 Climbing Montreal Center
Fri 07:27:05 AM 64.1167 -67.0500 90° East 150 173 15,600 350 Climbing Montreal Center
Fri 07:28:05 AM 64.1500 -66.9667 47° Northeast 150 173 15,900 300 Climbing Montreal Center
Fri 07:29:05 AM 64.1667 -66.8833 65° Northeast 150 173 16,200 350 Climbing Montreal Center
Fri 07:30:05 AM 64.1833 -66.8000 65° Northeast 150 173 16,600 400 Climbing Montreal Center
Fri 07:31:05 AM 64.2000 -66.7167 65° Northeast 150 173 17,000 250 Climbing Montreal Center
Fri 07:32:05 AM 64.2333 -66.6333 47° Northeast 160 184 17,100  Climbing Montreal Center
Fri 07:33:05 AM 64.2667 -66.5500 47° Northeast 170 196 17,000 -50 Descending Montreal Center
Fri 07:34:05 AM 64.2667 -66.4667 90° East 170 196 17,000 50 Level Montreal Center
Fri 07:35:05 AM 64.3000 -66.3833 47° Northeast 170 196 17,100 50 Climbing Montreal Center
Fri 07:36:05 AM 64.3333 -66.2500 60° Northeast 160 184 17,100 -50 Level Montreal Center
Fri 07:37:05 AM 64.3500 -66.1667 65° Northeast 160 184 17,000  Descending Montreal Center
Fri 07:38:05 AM 64.3667 -66.0833 65° Northeast 160 184 17,100 50 Climbing Montreal Center
Fri 07:39:05 AM 64.4000 -66.0000 47° Northeast 160 184 17,100 -50 Level Montreal Center
Fri 07:40:05 AM 64.4167 -65.9167 65° Northeast 160 184 17,000 -50 Descending Montreal Center
Fri 07:41:05 AM 64.4333 -65.8333 65° Northeast 160 184 17,000  Level Montreal Center
Fri 07:42:05 AM 64.4667 -65.7500 47° Northeast 170 196 17,000  Level Montreal Center
Fri 07:43:05 AM 64.4833 -65.6167 74° East 160 184 17,000  Level Montreal Center
Fri 07:44:05 AM 64.5000 -65.5333 65° Northeast 160 184 17,000  Level Montreal Center
Fri 07:45:05 AM 64.5167 -65.4500 65° Northeast 160 184 17,000  Level Montreal Center
Fri 07:46:05 AM 64.5500 -65.3500 52° Northeast 170 196 17,000  Level Montreal Center
Fri 07:47:05 AM 64.5667 -65.2667 65° Northeast 170 196 17,000  Level Montreal Center
Fri 07:48:05 AM 64.5833 -65.1500 72° East 180 207 17,000  Level Montreal Center
Fri 07:49:05 AM 64.6167 -65.0500 52° Northeast 170 196 17,000  Level Montreal Center
Fri 07:50:05 AM 64.6500 -64.9667 47° Northeast 170 196 17,000  Level Montreal Center
Fri 07:51:05 AM 64.6500 -64.8833 90° East 170 196 17,000  Level Montreal Center
Fri 07:52:05 AM 64.6833 -64.7500 60° Northeast 170 196 17,000  Level Montreal Center
Fri 07:53:05 AM 64.7000 -64.6667 65° Northeast 170 196 17,000  Level Montreal Center
Fri 07:54:05 AM 64.7333 -64.5833 47° Northeast 170 196 17,000  Level Montreal Center
Fri 07:55:05 AM 64.7500 -64.5000 65° Northeast 170 196 17,000  Level Montreal Center
Fri 07:56:05 AM 64.7667 -64.4000 69° East 160 184 17,000  Level Montreal Center
Fri 07:57:05 AM 64.8000 -64.3167 47° Northeast 170 196 17,000  Level Montreal Center
Fri 07:58:05 AM 64.8000 -64.1833 90° East 170 196 17,000  Level Montreal Center
Fri 07:59:05 AM 64.8333 -64.1000 47° Northeast 160 184 17,000  Level Montreal Center
Fri 08:00:05 AM 64.8500 -64.0000 69° East 160 184 17,000  Level Montreal Center
Fri 08:01:05 AM 64.8667 -63.9167 65° Northeast 160 184 17,000  Level Montreal Center
Fri 08:02:05 AM 64.9000 -63.8333 47° Northeast 170 196 17,000  Level Montreal Center
Fri 08:03:05 AM 64.9167 -63.7000 74° East 160 184 17,000  Level Montreal Center
Fri 08:04:05 AM 64.9333 -63.6500 52° Northeast 170 196 17,000  Level Montreal Center
Fri 08:05:05 AM 64.9500 -63.5333 71° East 160 184 17,000  Level Montreal Center
Fri 08:06:05 AM 64.9833 -63.4333 52° Northeast 160 184 17,000  Level Montreal Center
Fri 08:07:05 AM 64.9833 -63.3500 90° East 170 196 17,000  Level Montreal Center
Fri 08:08:05 AM 65.0167 -63.2500 52° Northeast 160 184 17,000  Level Montreal Center
Fri 08:09:05 AM 65.0500 -63.1667 47° Northeast 160 184 17,000  Level Montreal Center
Fri 08:10:05 AM 65.0500 -63.0833 90° East 160 184 17,000  Level Montreal Center
Fri 08:11:05 AM 65.0833 -62.9833 52° Northeast 170 196 17,000  Level Montreal Center
Fri 08:12:05 AM 65.1000 -62.9000 65° Northeast 160 184 17,000  Level Montreal Center
Fri 08:13:05 AM 65.1167 -62.7667 73° East 170 196 17,000 -135 Level Montreal Center
Fri 08:13:34 AM 65.1333 -62.8167 308° West 170 196 16,800  Descending Gander Center
Fri 08:14:05 AM 65.1333 -62.6833 90° East 160 184 17,000 132 Climbing Montreal Center
Fri 08:15:05 AM 65.1667 -62.5833 52° Northeast 160 184 17,000  Level Montreal Center
Fri 08:16:05 AM 65.1667 -62.4667 90° East 160 184 17,000  Level Montreal Center
Fri 08:17:05 AM 65.2000 -62.4000 40° Northeast 160 184 17,000  Level Montreal Center
Fri 08:18:05 AM 65.2167 -62.2667 73° East 160 184 17,000  Level Montreal Center
Fri 08:19:05 AM 65.2333 -62.1833 64° Northeast 160 184 17,000  Level Montreal Center
Fri 08:20:05 AM 65.2500 -62.1000 64° Northeast 160 184 17,000  Level Montreal Center
Fri 08:21:05 AM 65.2833 -62.0000 51° Northeast 160 184 17,000  Level Montreal Center
Fri 08:22:05 AM 65.2833 -61.9167 90° East 160 184 17,000  Level Montreal Center
Fri 08:23:05 AM 65.3167 -61.7833 59° Northeast 170 196 17,000  Level Montreal Center
Fri 08:24:05 AM 65.3167 -61.7000 90° East 160 184 17,000  Level Montreal Center
Fri 08:25:05 AM 65.3500 -61.6333 40° Northeast 160 184 17,000  Level Montreal Center
Fri 08:26:05 AM 65.3667 -61.5000 73° East 160 184 17,000 -135 Level Montreal Center
Fri 08:26:34 AM 65.3833 -61.6000 292° West 160 184 16,800 -135 Descending Gander Center
Fri 08:27:34 AM 65.4000 -61.4833 71° East 160 184 16,800 132 Level Gander Center
Fri 08:28:05 AM 65.4167 -61.3667 71° East 160 184 17,000  Climbing Montreal Center
Fri 08:28:34 AM 65.4167 -61.4000 270° West 160 184 16,800  Descending Gander Center
Fri 08:29:05 AM 65.4333 -61.3000 68° East 200 230 17,000 132 Climbing Montreal Center
Fri 08:30:05 AM 65.4333 -61.1333 90° East 180 207 17,000  Level Montreal Center
Fri 08:31:05 AM 65.4667 -61.0500 46° Northeast 170 196 17,000  Level Montreal Center
Fri 08:32:05 AM 65.4667 -60.9500 90° East 160 184 17,000  Level Montreal Center
Fri 08:33:05 AM 65.5000 -60.8667 46° Northeast 160 184 17,000  Level Montreal Center
Fri 08:34:05 AM 65.5167 -60.7667 68° East 160 184 17,000  Level Montreal Center
Fri 08:35:05 AM 65.5500 -60.6667 51° Northeast 160 184 17,000  Level Montreal Center
Fri 08:36:05 AM 65.5500 -60.5500 90° East 160 184 17,000  Level Montreal Center
Fri 08:37:05 AM 65.5833 -60.4500 51° Northeast 170 196 17,000  Level Montreal Center
Fri 08:38:05 AM 65.5667 -60.2500 101° East 240 276 17,000  Level Montreal Center
Fri 08:39:05 AM 65.6167 -60.2667 352° North 190 219 17,000  Level Montreal Center
Fri 08:40:05 AM 65.6333 -60.1667 68° East 170 196 17,000  Level Montreal Center
Fri 08:41:05 AM 65.6500 -60.0833 64° Northeast 170 196 17,000  Level Montreal Center
Fri 08:42:05 AM 65.6667 -59.9833 68° East 160 184 17,000  Level Montreal Center
Fri 08:43:05 AM 65.6833 -59.8833 68° East 160 184 17,000  Level Montreal Center
Fri 08:44:05 AM 65.7000 -59.7500 73° East 160 184 17,000  Level Montreal Center
Fri 08:45:05 AM 65.7167 -59.7000 51° Northeast 160 184 17,000  Level Montreal Center
Fri 08:46:05 AM 65.7500 -59.5667 59° Northeast 220 253 17,000  Level Montreal Center
Fri 08:47:05 AM 65.7500 -59.4667 90° East 190 219 17,000  Level Montreal Center
Fri 08:48:05 AM 65.7833 -59.3667 51° Northeast 180 207 17,000  Level Montreal Center
Fri 08:49:05 AM 65.8000 -59.2833 64° Northeast 170 196 17,000 -57 Level Montreal Center
Fri 08:51:34 AM 65.8500 -59.1167 54° Northeast 160 184 16,800 -57 Descending Gander Center
Fri 08:52:34 AM 65.8667 -58.9833 73° East 160 184 16,800  Level Gander Center
Fri 08:53:34 AM 65.8667 -58.9000 90° East 170 196 16,800  Level Gander Center
Fri 08:54:34 AM 65.8833 -58.7833 71° East 170 196 16,800  Level Gander Center
Fri 08:55:34 AM 65.9167 -58.7000 46° Northeast 160 184 16,800  Level Gander Center
Fri 08:56:34 AM 65.9333 -58.5833 71° East 170 196 16,800  Level Gander Center
Fri 08:58:00 AM 65.9575 -58.4351 68° East  Level FlightAware Approximate
Fri 09:05:00 AM 66.0736 -57.7070 68° East  Level FlightAware Approximate
Fri 09:06:00 AM 66.0899 -57.6025 69° East  Level FlightAware Approximate
Fri 09:07:00 AM 66.1061 -57.4978 69° East  Level FlightAware Approximate
Fri 09:08:00 AM 66.1223 -57.3930 69° East  Level FlightAware Approximate
Fri 09:09:00 AM 66.1384 -57.2881 69° East  Level FlightAware Approximate
Fri 09:10:00 AM 66.1544 -57.1830 69° East  Level FlightAware Approximate
Fri 09:11:00 AM 66.1704 -57.0778 69° East  Level FlightAware Approximate
Fri 09:12:00 AM 66.1862 -56.9724 69° East  Level FlightAware Approximate
Fri 09:13:00 AM 66.2020 -56.8670 70° East  Level FlightAware Approximate
Fri 09:14:00 AM 66.2178 -56.7613 70° East  Level FlightAware Approximate
Fri 09:15:00 AM 66.2334 -56.6556 70° East  Level FlightAware Approximate
Fri 09:16:00 AM 66.2490 -56.5497 70° East  Level FlightAware Approximate
Fri 09:17:00 AM 66.2645 -56.4437 70° East  Level FlightAware Approximate
Fri 09:18:00 AM 66.2800 -56.3376 70° East  Level FlightAware Approximate
Fri 09:19:00 AM 66.2954 -56.2313 70° East  Level FlightAware Approximate
Fri 09:20:00 AM 66.3107 -56.1250 70° East  Level FlightAware Approximate
Fri 09:21:00 AM 66.3259 -56.0184 70° East  Level FlightAware Approximate
Fri 09:22:00 AM 66.3410 -55.9118 70° East  Level FlightAware Approximate
Fri 09:23:00 AM 66.3561 -55.8050 71° East  Level FlightAware Approximate
Fri 09:24:00 AM 66.3711 -55.6981 71° East  Level FlightAware Approximate
Fri 09:25:00 AM 66.3861 -55.5911 71° East  Level FlightAware Approximate
Fri 09:26:00 AM 66.4009 -55.4839 71° East  Level FlightAware Approximate
Fri 09:27:00 AM 66.4157 -55.3766 71° East  Level FlightAware Approximate
Fri 09:28:00 AM 66.4304 -55.2692 71° East  Level FlightAware Approximate
Fri 09:29:00 AM 66.4451 -55.1617 71° East  Level FlightAware Approximate
Fri 09:30:00 AM 66.4596 -55.0540 71° East  Level FlightAware Approximate
Fri 09:31:00 AM 66.4741 -54.9462 71° East  Level FlightAware Approximate
Fri 09:32:00 AM 66.4885 -54.8383 71° East  Level FlightAware Approximate
Fri 09:33:00 AM 66.5029 -54.7302 72° East  Level FlightAware Approximate
Fri 09:34:00 AM 66.5172 -54.6221 72° East  Level FlightAware Approximate
Fri 09:35:00 AM 66.5313 -54.5138 72° East  Level FlightAware Approximate
Fri 09:36:00 AM 66.5455 -54.4054 72° East  Level FlightAware Approximate
Fri 09:37:00 AM 66.5595 -54.2968 72° East  Level FlightAware Approximate
Fri 09:38:00 AM 66.5735 -54.1882 72° East  Level FlightAware Approximate
Fri 09:39:00 AM 66.5874 -54.0794 72° East  Level FlightAware Approximate
Fri 09:40:00 AM 66.6012 -53.9705 72° East  Level FlightAware Approximate
Fri 09:41:00 AM 66.6149 -53.8615 72° East  Level FlightAware Approximate
Fri 09:42:00 AM 66.6286 -53.7523 72° East  Level FlightAware Approximate
Fri 09:43:00 AM 66.6422 -53.6431 73° East  Level FlightAware Approximate
Fri 09:44:00 AM 66.6557 -53.5337 73° East  Level FlightAware Approximate
Fri 09:45:00 AM 66.6691 -53.4242 73° East  Level FlightAware Approximate
Fri 09:46:00 AM 66.6825 -53.3146 73° East  Level FlightAware Approximate
Fri 09:47:00 AM 66.6958 -53.2048 73° East  Level FlightAware Approximate
Fri 09:48:00 AM 66.7090 -53.0950 73° East  Level FlightAware Approximate
Fri 09:49:00 AM 66.7221 -52.9850 73° East  Level FlightAware Approximate
Fri 09:50:00 AM 66.7352 -52.8749 73° East  Level FlightAware Approximate
Fri 09:51:00 AM 66.7482 -52.7647 73° East  Level FlightAware Approximate
Fri 09:52:00 AM 66.7611 -52.6544 73° East  Level FlightAware Approximate
Fri 09:53:00 AM 66.7739 -52.5439 74° East  Level FlightAware Approximate
Fri 09:54:00 AM 66.7866 -52.4334 74° East  Level FlightAware Approximate
Fri 09:55:00 AM 66.7993 -52.3227 74° East  Level FlightAware Approximate
Fri 09:56:00 AM 66.8119 -52.2119 74° East  Level FlightAware Approximate
Fri 09:57:00 AM 66.8244 -52.1010 74° East  Level FlightAware Approximate
Fri 09:58:00 AM 66.8369 -51.9900 74° East  Level FlightAware Approximate
Fri 09:59:00 AM 66.8492 -51.8789 74° East  Level FlightAware Approximate
Fri 10:00:00 AM 66.8615 -51.7677 74° East  Level FlightAware Approximate
Fri 10:01:00 AM 66.8737 -51.6563 74° East  Level FlightAware Approximate
Fri 10:02:00 AM 66.8858 -51.5449 74° East  Level FlightAware Approximate
Fri 10:03:00 AM 66.8979 -51.4333 75° East  Level FlightAware Approximate
Fri 10:04:00 AM 66.9099 -51.3216 75° East  Level FlightAware Approximate
Fri 10:05:00 AM 66.9217 -51.2098 75° East  Level FlightAware Approximate
Fri 10:06:00 AM 66.9335 -51.0979 75° East  Level FlightAware Approximate
Fri 10:07:00 AM 66.9453 -50.9860 75° East  Level FlightAware Approximate
Fri 10:08:00 AM 66.9569 -50.8738 75° East  Level FlightAware Approximate
Fri 10:09:00 AM 66.9685 -50.7616 75° East  Level FlightAware Approximate
Fri 10:10:00 AM 66.9800 -50.6493 75° East  Level FlightAware Approximate
Fri 10:11:00 AM 66.9812 -50.5343 94° East  Level FlightAware Approximate
Fri 10:12:00 AM 66.9781 -50.4184 94° East  Level FlightAware Approximate
Fri 10:13:00 AM 66.9750 -50.3026 94° East  Level FlightAware Approximate
Fri 10:14:00 AM 66.9718 -50.1868 94° East  Level FlightAware Approximate
Fri 10:15:00 AM 66.9685 -50.0710 94° East  Level FlightAware Approximate
Fri 10:16:00 AM 66.9651 -49.9553 94° East  Level FlightAware Approximate
Fri 10:17:00 AM 66.9616 -49.8396 94° East  Level FlightAware Approximate
Fri 10:18:00 AM 66.9581 -49.7239 94° East  Level FlightAware Approximate
Fri 10:19:00 AM 66.9544 -49.6082 95° East  Level FlightAware Approximate
Fri 10:20:00 AM 66.9507 -49.4926 95° East  Level FlightAware Approximate
Fri 10:21:00 AM 66.9469 -49.3771 95° East  Level FlightAware Approximate
Fri 10:22:00 AM 66.9430 -49.2615 95° East  Level FlightAware Approximate
Fri 10:23:00 AM 66.9390 -49.1460 95° East  Level FlightAware Approximate
Fri 10:24:00 AM 66.9349 -49.0306 95° East  Level FlightAware Approximate
Fri 10:25:00 AM 66.9308 -48.9151 95° East  Level FlightAware Approximate
Fri 10:26:00 AM 66.9266 -48.7998 95° East  Level FlightAware Approximate
Fri 10:27:00 AM 66.9222 -48.6844 95° East  Level FlightAware Approximate
Fri 10:28:00 AM 66.9178 -48.5691 96° East  Level FlightAware Approximate
Fri 10:29:00 AM 66.9134 -48.4539 96° East  Level FlightAware Approximate
Fri 10:30:00 AM 66.9088 -48.3386 96° East  Level FlightAware Approximate
Fri 10:31:00 AM 66.9041 -48.2235 96° East  Level FlightAware Approximate
Fri 10:32:00 AM 66.8994 -48.1083 96° East  Level FlightAware Approximate
Fri 10:33:00 AM 66.8946 -47.9933 96° East  Level FlightAware Approximate
Fri 10:34:00 AM 66.8897 -47.8782 96° East  Level FlightAware Approximate
Fri 10:35:00 AM 66.8847 -47.7632 96° East  Level FlightAware Approximate
Fri 10:36:00 AM 66.8796 -47.6483 96° East  Level FlightAware Approximate
Fri 10:37:00 AM 66.8745 -47.5334 96° East  Level FlightAware Approximate
Fri 10:38:00 AM 66.8692 -47.4185 97° East  Level FlightAware Approximate
Fri 10:39:00 AM 66.8639 -47.3037 97° East  Level FlightAware Approximate
Fri 10:40:00 AM 66.8585 -47.1890 97° East  Level FlightAware Approximate
Fri 10:41:00 AM 66.8531 -47.0743 97° East  Level FlightAware Approximate
Fri 10:42:00 AM 66.8475 -46.9596 97° East  Level FlightAware Approximate
Fri 10:43:00 AM 66.8418 -46.8451 97° East  Level FlightAware Approximate
Fri 10:44:00 AM 66.8361 -46.7305 97° East  Level FlightAware Approximate
Fri 10:45:00 AM 66.8303 -46.6160 97° East  Level FlightAware Approximate
Fri 10:46:00 AM 66.8244 -46.5016 97° East  Level FlightAware Approximate
Fri 10:47:00 AM 66.8184 -46.3872 98° East  Level FlightAware Approximate
Fri 10:48:00 AM 66.8123 -46.2729 98° East  Level FlightAware Approximate
Fri 10:49:00 AM 66.8062 -46.1587 98° East  Level FlightAware Approximate
Fri 10:50:00 AM 66.8000 -46.0445 98° East  Level FlightAware Approximate
Fri 10:51:00 AM 66.7937 -45.9303 98° East  Level FlightAware Approximate
Fri 10:52:00 AM 66.7873 -45.8162 98° East  Level FlightAware Approximate
Fri 10:53:00 AM 66.7808 -45.7022 98° East  Level FlightAware Approximate
Fri 10:54:00 AM 66.7742 -45.5882 98° East  Level FlightAware Approximate
Fri 10:55:00 AM 66.7676 -45.4743 98° East  Level FlightAware Approximate
Fri 10:56:00 AM 66.7609 -45.3605 98° East  Level FlightAware Approximate
Fri 10:57:00 AM 66.7541 -45.2467 99° East  Level FlightAware Approximate
Fri 10:58:00 AM 66.7472 -45.1330 99° East  Level FlightAware Approximate
Fri 10:59:00 AM 66.7402 -45.0193 99° East  Level FlightAware Approximate
Fri 11:00:00 AM 66.7332 -44.9057 99° East  Level FlightAware Approximate
Fri 11:01:00 AM 66.7261 -44.7922 99° East  Level FlightAware Approximate
Fri 11:02:00 AM 66.7188 -44.6787 99° East  Level FlightAware Approximate
Fri 11:03:00 AM 66.7115 -44.5654 99° East  Level FlightAware Approximate
Fri 11:04:00 AM 66.7042 -44.4520 99° East  Level FlightAware Approximate
Fri 11:05:00 AM 66.6967 -44.3388 99° East  Level FlightAware Approximate
Fri 11:06:00 AM 66.6892 -44.2256 100° East  Level FlightAware Approximate
Fri 11:07:00 AM 66.6816 -44.1125 100° East  Level FlightAware Approximate
Fri 11:08:00 AM 66.6739 -43.9994 100° East  Level FlightAware Approximate
Fri 11:09:00 AM 66.6661 -43.8864 100° East  Level FlightAware Approximate
Fri 11:10:00 AM 66.6582 -43.7735 100° East  Level FlightAware Approximate
Fri 11:11:00 AM 66.6503 -43.6607 100° East  Level FlightAware Approximate
Fri 11:12:00 AM 66.6423 -43.5479 100° East  Level FlightAware Approximate
Fri 11:13:00 AM 66.6342 -43.4352 100° East  Level FlightAware Approximate
Fri 11:14:00 AM 66.6260 -43.3226 100° East  Level FlightAware Approximate
Fri 11:15:00 AM 66.6177 -43.2101 100° East  Level FlightAware Approximate
Fri 11:16:00 AM 66.6094 -43.0976 101° East  Level FlightAware Approximate
Fri 11:17:00 AM 66.6009 -42.9852 101° East  Level FlightAware Approximate
Fri 11:18:00 AM 66.5924 -42.8729 101° East  Level FlightAware Approximate
Fri 11:19:00 AM 66.5838 -42.7607 101° East  Level FlightAware Approximate
Fri 11:20:00 AM 66.5752 -42.6486 101° East  Level FlightAware Approximate
Fri 11:21:00 AM 66.5664 -42.5365 101° East  Level FlightAware Approximate
Fri 11:22:00 AM 66.5576 -42.4245 101° East  Level FlightAware Approximate
Fri 11:23:00 AM 66.5487 -42.3126 101° East  Level FlightAware Approximate
Fri 11:24:00 AM 66.5397 -42.2007 101° East  Level FlightAware Approximate
Fri 11:25:00 AM 66.5306 -42.0890 101° East  Level FlightAware Approximate
Fri 11:26:00 AM 66.5215 -41.9773 102° East  Level FlightAware Approximate
Fri 11:27:00 AM 66.5122 -41.8657 102° East  Level FlightAware Approximate
Fri 11:28:00 AM 66.5029 -41.7542 102° East  Level FlightAware Approximate
Fri 11:29:00 AM 66.4936 -41.6428 102° East  Level FlightAware Approximate
Fri 11:30:00 AM 66.4841 -41.5314 102° East  Level FlightAware Approximate
Fri 11:31:00 AM 66.4746 -41.4202 102° East  Level FlightAware Approximate
Fri 11:32:00 AM 66.4649 -41.3090 102° East  Level FlightAware Approximate
Fri 11:33:00 AM 66.4552 -41.1979 102° East  Level FlightAware Approximate
Fri 11:34:00 AM 66.4455 -41.0869 102° East  Level FlightAware Approximate
Fri 11:35:00 AM 66.4356 -40.9760 102° East  Level FlightAware Approximate
Fri 11:36:00 AM 66.4257 -40.8652 103° East  Level FlightAware Approximate
Fri 11:37:00 AM 66.4156 -40.7545 103° East  Level FlightAware Approximate
Fri 11:38:00 AM 66.4056 -40.6438 103° East  Level FlightAware Approximate
Fri 11:39:00 AM 66.3954 -40.5333 103° East  Level FlightAware Approximate
Fri 11:40:00 AM 66.3851 -40.4228 103° East  Level FlightAware Approximate
Fri 11:41:00 AM 66.3748 -40.3125 103° East  Level FlightAware Approximate
Fri 11:42:00 AM 66.3644 -40.2022 103° East  Level FlightAware Approximate
Fri 11:43:00 AM 66.3539 -40.0920 103° East  Level FlightAware Approximate
Fri 11:44:00 AM 66.3434 -39.9819 103° East  Level FlightAware Approximate
Fri 11:45:00 AM 66.3327 -39.8719 103° East  Level FlightAware Approximate
Fri 11:46:00 AM 66.3220 -39.7620 104° East  Level FlightAware Approximate
Fri 11:47:00 AM 66.3112 -39.6521 104° East  Level FlightAware Approximate
Fri 11:48:00 AM 66.3003 -39.5424 104° East  Level FlightAware Approximate
Fri 11:49:00 AM 66.2894 -39.4328 104° East  Level FlightAware Approximate
Fri 11:50:00 AM 66.2784 -39.3233 104° East  Level FlightAware Approximate
Fri 11:51:00 AM 66.2673 -39.2138 104° East  Level FlightAware Approximate
Fri 11:52:00 AM 66.2561 -39.1045 104° East  Level FlightAware Approximate
Fri 11:53:00 AM 66.2448 -38.9953 104° East  Level FlightAware Approximate
Fri 11:54:00 AM 66.2335 -38.8861 104° East  Level FlightAware Approximate
Fri 11:55:00 AM 66.2221 -38.7771 105° East  Level FlightAware Approximate
Fri 11:56:00 AM 66.2106 -38.6681 105° East  Level FlightAware Approximate
Fri 11:57:00 AM 66.1990 -38.5593 105° East  Level FlightAware Approximate
Fri 11:58:00 AM 66.1874 -38.4505 105° East  Level FlightAware Approximate
Fri 11:59:00 AM 66.1757 -38.3419 105° East  Level FlightAware Approximate
Fri 12:00:00 PM 66.1639 -38.2333 105° East  Level FlightAware Approximate
Fri 12:01:00 PM 66.1520 -38.1249 105° East  Level FlightAware Approximate
Fri 12:02:00 PM 66.1401 -38.0165 105° East  Level FlightAware Approximate
Fri 12:03:00 PM 66.1281 -37.9083 105° East  Level FlightAware Approximate
Fri 12:04:00 PM 66.1160 -37.8001 105° East  Level FlightAware Approximate
Fri 12:05:00 PM 66.1038 -37.6921 105° East  Level FlightAware Approximate
Fri 12:06:00 PM 66.0915 -37.5842 106° East  Level FlightAware Approximate
Fri 12:07:00 PM 66.0792 -37.4763 106° East  Level FlightAware Approximate
Fri 12:08:00 PM 66.0668 -37.3686 106° East  Level FlightAware Approximate
Fri 12:09:00 PM 66.0544 -37.2610 106° East  Level FlightAware Approximate
Fri 12:10:00 PM 66.0418 -37.1535 106° East  Level FlightAware Approximate
Fri 12:11:00 PM 66.0292 -37.0461 106° East  Level FlightAware Approximate
Fri 12:12:00 PM 66.0165 -36.9388 106° East  Level FlightAware Approximate
Fri 12:13:00 PM 66.0037 -36.8316 106° East  Level FlightAware Approximate
Fri 12:14:00 PM 65.9909 -36.7245 106° East  Level FlightAware Approximate
Fri 12:15:00 PM 65.9780 -36.6176 106° East  Level FlightAware Approximate
Fri 12:16:00 PM 65.9650 -36.5107 107° East  Level FlightAware Approximate
Fri 12:17:00 PM 65.9519 -36.4039 107° East  Level FlightAware Approximate
Fri 12:18:00 PM 65.9388 -36.2973 107° East  Level FlightAware Approximate
Fri 12:19:00 PM 65.9256 -36.1907 107° East  Level FlightAware Approximate
Fri 12:20:00 PM 65.9123 -36.0843 107° East  Level FlightAware Approximate
Fri 12:21:00 PM 65.8989 -35.9780 107° East  Level FlightAware Approximate
Fri 12:22:00 PM 65.8855 -35.8718 107° East  Level FlightAware Approximate
Fri 12:23:00 PM 65.8720 -35.7657 107° East  Level FlightAware Approximate
Fri 12:24:00 PM 65.8584 -35.6597 107° East  Level FlightAware Approximate
Fri 12:25:00 PM 65.8447 -35.5538 107° East  Level FlightAware Approximate
Fri 12:26:00 PM 65.8310 -35.4481 108° East  Level FlightAware Approximate
Fri 12:27:00 PM 65.8172 -35.3424 108° East  Level FlightAware Approximate
Fri 12:28:00 PM 65.8033 -35.2369 108° East  Level FlightAware Approximate
Fri 12:29:00 PM 65.7894 -35.1315 108° East  Level FlightAware Approximate
Fri 12:30:00 PM 65.7754 -35.0262 108° East  Level FlightAware Approximate
Fri 12:31:00 PM 65.7613 -34.9210 108° East  Level FlightAware Approximate
Fri 12:32:00 PM 65.7471 -34.8159 108° East  Level FlightAware Approximate
Fri 12:33:00 PM 65.7329 -34.7110 108° East  Level FlightAware Approximate
Fri 12:34:00 PM 65.7186 -34.6061 108° East  Level FlightAware Approximate
Fri 12:35:00 PM 65.7042 -34.5014 108° East  Level FlightAware Approximate
Fri 12:36:00 PM 65.6897 -34.3968 109° East  Level FlightAware Approximate
Fri 12:37:00 PM 65.6752 -34.2923 109° East  Level FlightAware Approximate
Fri 12:38:00 PM 65.6606 -34.1879 109° East  Level FlightAware Approximate
Fri 12:39:00 PM 65.6460 -34.0837 109° East  Level FlightAware Approximate
Fri 12:40:00 PM 65.6312 -33.9795 109° East  Level FlightAware Approximate
Fri 12:41:00 PM 65.6164 -33.8755 109° East  Level FlightAware Approximate
Fri 12:42:00 PM 65.6015 -33.7716 109° East  Level FlightAware Approximate
Fri 12:43:00 PM 65.5866 -33.6678 109° East  Level FlightAware Approximate
Fri 12:44:00 PM 65.5716 -33.5642 109° East  Level FlightAware Approximate
Fri 12:45:00 PM 65.5565 -33.4606 109° East  Level FlightAware Approximate
Fri 12:46:00 PM 65.5413 -33.3572 109° East  Level FlightAware Approximate
Fri 12:47:00 PM 65.5261 -33.2539 110° East  Level FlightAware Approximate
Fri 12:48:00 PM 65.5108 -33.1507 110° East  Level FlightAware Approximate
Fri 12:49:00 PM 65.4954 -33.0477 110° East  Level FlightAware Approximate
Fri 12:50:00 PM 65.4800 -32.9447 110° East  Level FlightAware Approximate
Fri 12:51:00 PM 65.4645 -32.8419 110° East  Level FlightAware Approximate
Fri 12:52:00 PM 65.4489 -32.7392 110° East  Level FlightAware Approximate
Fri 12:53:00 PM 65.4332 -32.6367 110° East  Level FlightAware Approximate
Fri 12:54:00 PM 65.4175 -32.5342 110° East  Level FlightAware Approximate
Fri 12:55:00 PM 65.4017 -32.4319 110° East  Level FlightAware Approximate
Fri 12:56:00 PM 65.3859 -32.3297 110° East  Level FlightAware Approximate
Fri 12:57:00 PM 65.3699 -32.2276 110° East  Level FlightAware Approximate
Fri 12:58:00 PM 65.3540 -32.1256 111° Southeast  Level FlightAware Approximate
Fri 12:59:00 PM 65.3379 -32.0238 111° Southeast  Level FlightAware Approximate
Fri 01:00:00 PM 65.3218 -31.9221 111° Southeast  Level FlightAware Approximate
Fri 01:01:00 PM 65.3056 -31.8205 111° Southeast  Level FlightAware Approximate
Fri 01:02:00 PM 65.2893 -31.7190 111° Southeast  Level FlightAware Approximate
Fri 01:03:00 PM 65.2729 -31.6177 111° Southeast  Level FlightAware Approximate
Fri 01:04:00 PM 65.2566 -31.5165 111° Southeast  Level FlightAware Approximate
Fri 01:05:00 PM 65.2401 -31.4154 111° Southeast  Level FlightAware Approximate
Fri 01:06:00 PM 65.2235 -31.3145 111° Southeast  Level FlightAware Approximate
Fri 01:07:00 PM 65.2069 -31.2136 111° Southeast  Level FlightAware Approximate
Fri 01:08:00 PM 65.1902 -31.1129 111° Southeast  Level FlightAware Approximate
Fri 01:09:00 PM 65.1735 -31.0124 112° Southeast  Level FlightAware Approximate
Fri 01:10:00 PM 65.1567 -30.9119 112° Southeast  Level FlightAware Approximate
Fri 01:11:00 PM 65.1398 -30.8116 112° Southeast  Level FlightAware Approximate
Fri 01:12:00 PM 65.1229 -30.7114 112° Southeast  Level FlightAware Approximate
Fri 01:13:00 PM 65.1059 -30.6114 112° Southeast  Level FlightAware Approximate
Fri 01:14:00 PM 65.0888 -30.5114 112° Southeast  Level FlightAware Approximate
Fri 01:15:00 PM 65.0716 -30.4116 112° Southeast  Level FlightAware Approximate
Fri 01:16:00 PM 65.0544 -30.3119 112° Southeast  Level FlightAware Approximate
Fri 01:17:00 PM 65.0372 -30.2124 112° Southeast  Level FlightAware Approximate
Fri 01:18:00 PM 65.0198 -30.1130 112° Southeast  Level FlightAware Approximate
Fri 01:19:00 PM 65.0024 -30.0137 113° Southeast  Level FlightAware Approximate
Fri 01:20:00 PM 64.9902 -29.9104 104° East  Level FlightAware Approximate
Fri 01:21:00 PM 64.9787 -29.8065 105° East  Level FlightAware Approximate
Fri 01:22:00 PM 64.9672 -29.7026 105° East  Level FlightAware Approximate
Fri 01:23:00 PM 64.9556 -29.5989 105° East  Level FlightAware Approximate
Fri 01:24:00 PM 64.9439 -29.4953 105° East  Level FlightAware Approximate
Fri 01:25:00 PM 64.9322 -29.3917 105° East  Level FlightAware Approximate
Fri 01:26:00 PM 64.9204 -29.2882 105° East  Level FlightAware Approximate
Fri 01:27:00 PM 64.9085 -29.1848 105° East  Level FlightAware Approximate
Fri 01:28:00 PM 64.8965 -29.0816 105° East  Level FlightAware Approximate
Fri 01:29:00 PM 64.8845 -28.9783 105° East  Level FlightAware Approximate
Fri 01:30:00 PM 64.8724 -28.8752 105° East  Level FlightAware Approximate
Fri 01:31:00 PM 64.8602 -28.7722 106° East  Level FlightAware Approximate
Fri 01:32:00 PM 64.8480 -28.6693 106° East  Level FlightAware Approximate
Fri 01:33:00 PM 64.8357 -28.5665 106° East  Level FlightAware Approximate
Fri 01:34:00 PM 64.8233 -28.4638 106° East  Level FlightAware Approximate
Fri 01:35:00 PM 64.8108 -28.3611 106° East  Level FlightAware Approximate
Fri 01:36:00 PM 64.7983 -28.2586 106° East  Level FlightAware Approximate
Fri 01:37:00 PM 64.7857 -28.1562 106° East  Level FlightAware Approximate
Fri 01:38:00 PM 64.7730 -28.0538 106° East  Level FlightAware Approximate
Fri 01:39:00 PM 64.7603 -27.9516 106° East  Level FlightAware Approximate
Fri 01:40:00 PM 64.7475 -27.8494 106° East  Level FlightAware Approximate
Fri 01:41:00 PM 64.7346 -27.7474 106° East  Level FlightAware Approximate
Fri 01:42:00 PM 64.7216 -27.6454 107° East  Level FlightAware Approximate
Fri 01:43:00 PM 64.7086 -27.5435 107° East  Level FlightAware Approximate
Fri 01:44:00 PM 64.6955 -27.4418 107° East  Level FlightAware Approximate
Fri 01:45:00 PM 64.6824 -27.3401 107° East  Level FlightAware Approximate
Fri 01:46:00 PM 64.6691 -27.2385 107° East  Level FlightAware Approximate
Fri 01:47:00 PM 64.6558 -27.1371 107° East  Level FlightAware Approximate
Fri 01:48:00 PM 64.6425 -27.0357 107° East  Level FlightAware Approximate
Fri 01:49:00 PM 64.6291 -26.9344 107° East  Level FlightAware Approximate
Fri 01:50:00 PM 64.6159 -26.8330 107° East  Level FlightAware Approximate
Fri 01:51:00 PM 64.6025 -26.7318 107° East  Level FlightAware Approximate
Fri 01:52:00 PM 64.5891 -26.6306 107° East  Level FlightAware Approximate
Fri 01:53:00 PM 64.5756 -26.5296 107° East  Level FlightAware Approximate
Fri 01:54:00 PM 64.5621 -26.4287 107° East  Level FlightAware Approximate
Fri 01:55:00 PM 64.5485 -26.3278 107° East  Level FlightAware Approximate
Fri 01:56:00 PM 64.5348 -26.2271 107° East  Level FlightAware Approximate
Fri 01:57:00 PM 64.5211 -26.1264 108° East  Level FlightAware Approximate
Fri 01:58:00 PM 64.5072 -26.0259 108° East  Level FlightAware Approximate
Fri 01:59:00 PM 64.4933 -25.9255 108° East  Level FlightAware Approximate
Fri 02:00:00 PM 64.4794 -25.8251 108° East  Level FlightAware Approximate
Fri 02:01:00 PM 64.4654 -25.7249 108° East  Level FlightAware Approximate
Fri 02:02:00 PM 64.4513 -25.6248 108° East  Level FlightAware Approximate
Fri 02:03:00 PM 64.4371 -25.5248 108° East  Level FlightAware Approximate
Fri 02:04:00 PM 64.4229 -25.4249 108° East  Level FlightAware Approximate
Fri 02:05:00 PM 64.4086 -25.3250 108° East  Level FlightAware Approximate
Fri 02:06:00 PM 64.3942 -25.2253 108° East  Level FlightAware Approximate
Fri 02:07:00 PM 64.3796 -25.1259 110° East  Level FlightAware Approximate
Fri 02:08:00 PM 64.3641 -25.0272 110° East  Level FlightAware Approximate
Fri 02:09:00 PM 64.3485 -24.9286 110° East  Level FlightAware Approximate
Fri 02:10:00 PM 64.3329 -24.8302 110° East  Level FlightAware Approximate
Fri 02:11:00 PM 64.3172 -24.7318 110° East  Level FlightAware Approximate
Fri 02:12:00 PM 64.3014 -24.6336 110° East  Level FlightAware Approximate
Fri 02:13:00 PM 64.2856 -24.5354 110° East  Level FlightAware Approximate
Fri 02:14:00 PM 64.2697 -24.4374 110° East  Level FlightAware Approximate
Fri 02:15:00 PM 64.2537 -24.3395 111° Southeast  Level FlightAware Approximate
Fri 02:16:00 PM 64.2397 -24.2402 107° East  Level FlightAware Approximate
Fri 02:17:00 PM 64.2261 -24.1405 107° East  Level FlightAware Approximate
Fri 02:18:00 PM 64.2125 -24.0408 107° East  Level FlightAware Approximate
Fri 02:19:00 PM 64.1986 -23.9415 111° Southeast  Level FlightAware Approximate
Fri 02:20:00 PM 64.1826 -23.8439 111° Southeast  Level FlightAware Approximate
Fri 02:21:00 PM 64.1665 -23.7464 111° Southeast  Level FlightAware Approximate
Fri 02:22:00 PM 64.1504 -23.6490 111° Southeast  Level FlightAware Approximate
Fri 02:23:00 PM 64.1341 -23.5517 111° Southeast  Level FlightAware Approximate
Fri 02:24:00 PM 64.1179 -23.4546 111° Southeast  Level FlightAware Approximate
Fri 02:25:00 PM 64.1015 -23.3575 111° Southeast  Level FlightAware Approximate
Fri 02:26:00 PM 64.0851 -23.2606 111° Southeast  Level FlightAware Approximate
Fri 02:27:00 PM 64.0686 -23.1639 111° Southeast  Level FlightAware Approximate
Fri 02:28:00 PM 64.0521 -23.0672 111° Southeast  Level FlightAware Approximate
Fri 02:29:00 PM 64.0354 -22.9706 111° Southeast  Level FlightAware Approximate
Fri 02:30:00 PM 64.0187 -22.8742 112° Southeast  Level FlightAware Approximate
Fri 02:31:00 PM 64.0020 -22.7779 112° Southeast  Level FlightAware Approximate
Fri 02:32:00 PM 63.9911 -22.6775 103° East  Level FlightAware Approximate
Fri 02:33:00 PM 63.9737 -22.6097 204° Southwest  Level FlightAware Approximate
Fri 02:34:00 PM 63.9667 -22.6167 204° Southwest  Level FlightAware Approximate
Fri 02:35:00 PM 63.9850 -22.6056 204° Southwest  Level Estimated
Fri 02:36:00 PM 63.9850 -22.6056 204° Southwest  Level Estimated
Fri 02:37:00 PM 63.9850 -22.6056 204° Southwest  Level Estimated
Fri 02:38:00 PM 63.9850 -22.6056 204° Southwest  Level Estimated
Fri 02:39:00 PM 63.9850 -22.6056 204° Southwest  Level Estimated
Fri 02:40:00 PM 63.9850 -22.6056 204° Southwest  Level Estimated
Fri 02:41:00 PM 63.9850 -22.6056 204° Southwest  Level Estimated
Fri 02:42:00 PM 63.9850 -22.6056 204° Southwest  Level Estimated
Fri 02:43:00 PM 63.9850 -22.6056 204° Southwest  Level Estimated
Fri 02:44:00 PM 63.9850 -22.6056 204° Southwest  Level Estimated
Fri 02:45:00 PM 63.9850 -22.6056 204° Southwest  Level Estimated
Fri 02:46:00 PM 63.9850 -22.6056 204° Southwest  Level Estimated
Fri 02:47:00 PM 63.9850 -22.6056 204° Southwest  Level Estimated
Fri 02:48:00 PM 63.9850 -22.6056 204° Southwest  Level Estimated
Fri 02:49:00 PM 63.9850 -22.6056 204° Southwest  Level Estimated
Fri 02:50:00 PM 63.9850 -22.6056 204° Southwest  Level Estimated
Fri 02:51:00 PM 63.9850 -22.6056 204° Southwest  Level Estimated

Login

Don't have an account? Register now (free) for customized features, flight alerts, and more!